Flight Track Log - Related Links

Times and Time Zones

All times are in EDT time to prevent confusion due to time zone crossing. See the AXM5243 flight status page for this flight to view local times or setup timezone preferences in your user account.

Time Position Orientation Groundspeed Altitude Reporting Facility
EDT Latitude Longitude Course Direction KTS MPH feet Rate Location/Type
Wed 07:50:22 AM 2.9640 111.5090 261° West 415 478 30,000  Level FlightAware ADS-B
Wed 07:50:52 AM 2.9550 111.4470 262° West 420 483 30,600 646 Climbing FlightAware ADS-B
Wed 07:51:27 AM 2.9460 111.3920 261° West 420 483 30,700 83 Climbing FlightAware ADS-B
Wed 07:52:04 AM 2.9370 111.3320 261° West 420 483 30,700 1,944 Level FlightAware ADS-B
Wed 07:52:38 AM 2.9250 111.2470 262° West 414 476 33,000 2,762 Climbing FlightAware ADS-B
Wed 07:53:07 AM 2.9170 111.1930 262° West 409 471 33,600 1,186 Climbing FlightAware ADS-B
Wed 07:54:04 AM 2.9020 111.0880 262° West 407 468 34,700 785 Climbing FlightAware ADS-B
Wed 07:54:54 AM 2.8870 110.9920 261° West 420 483 35,000 400 Climbing FlightAware ADS-B
Wed 07:55:34 AM 2.8760 110.9130 262° West 431 496 35,300 395 Climbing FlightAware ADS-B
Wed 07:56:10 AM 2.8650 110.8410 261° West 442 509 35,500 240 Climbing FlightAware ADS-B
Wed 07:56:49 AM 2.8530 110.7620 261° West 453 521 35,600 222 Climbing FlightAware ADS-B
Wed 07:57:31 AM 2.8400 110.6740 262° West 464 534 35,800 366 Climbing FlightAware ADS-B
Wed 07:58:11 AM 2.8280 110.5900 262° West 472 543 36,100 623 Climbing FlightAware ADS-B
Wed 07:58:48 AM 2.8150 110.5060 261° West 472 543 36,600 800 Climbing FlightAware ADS-B
Wed 07:59:26 AM 2.8030 110.4250 262° West 472 543 37,100 917 Climbing FlightAware ADS-B
Wed 08:00:00 AM 2.7920 110.3520 261° West 467 537 37,700 659 Climbing FlightAware ADS-B
Wed 08:00:48 AM 2.7770 110.2500 262° West 466 536 38,000 207 Climbing FlightAware ADS-B
Wed 08:01:27 AM 2.7640 110.1680 261° West 465 535 38,000  Level FlightAware ADS-B
Wed 08:02:06 AM 2.7520 110.0820 262° West 464 534 38,000  Level FlightAware ADS-B
Wed 08:02:44 AM 2.7400 110.0040 261° West 464 534 38,000  Level FlightAware ADS-B
Wed 08:03:23 AM 2.7280 109.9220 262° West 465 535 38,000  Level FlightAware ADS-B
Wed 08:04:00 AM 2.7150 109.8400 261° West 465 535 38,000  Level FlightAware ADS-B
Wed 08:04:40 AM 2.7020 109.7540 261° West 464 534 38,000  Level FlightAware ADS-B
Wed 08:05:27 AM 2.6880 109.6570 262° West 463 533 38,000  Level FlightAware ADS-B
Wed 08:06:10 AM 2.6740 109.5640 261° West 464 534 38,000  Level FlightAware ADS-B
Wed 08:06:46 AM 2.6630 109.4880 262° West 466 536 38,000  Level FlightAware ADS-B
Wed 08:07:29 AM 2.6490 109.3980 261° West 469 540 38,000  Level FlightAware ADS-B
Wed 08:08:12 AM 2.6350 109.3030 262° West 471 542 38,000  Level FlightAware ADS-B
Wed 08:08:38 AM 2.6270 109.2500 261° West 471 542 38,000  Level FlightAware ADS-B
Wed 08:09:24 AM 2.6110 109.1480 261° West 472 543 38,000 63 Level FlightAware ADS-B
Wed 08:10:14 AM 2.5950 109.0410 261° West 471 542 38,100  Climbing FlightAware ADS-B
Wed 08:10:53 AM 2.5820 108.9580 261° West 470 541 38,000 -71 Descending FlightAware ADS-B
Wed 08:11:38 AM 2.5540 108.8640 253° West 470 541 38,000  Level FlightAware ADS-B
Wed 08:12:12 AM 2.5330 108.8110 248° West 469 540 38,000  Level FlightAware ADS-B
Wed 08:12:43 AM 2.5030 108.7330 249° West 468 539 38,000  Level FlightAware ADS-B
Wed 08:13:23 AM 2.4720 108.6510 249° West 469 540 38,000  Level FlightAware ADS-B
Wed 08:14:00 AM 2.4430 108.5760 249° West 469 540 38,000  Level FlightAware ADS-B
Wed 08:14:32 AM 2.4180 108.5110 249° West 470 541 38,000  Level FlightAware ADS-B
Wed 08:15:16 AM 2.3830 108.4210 249° West 470 541 38,000  Level FlightAware ADS-B
Wed 08:15:56 AM 2.3520 108.3400 249° West 471 542 38,000  Level FlightAware ADS-B
Wed 08:16:38 AM 2.3190 108.2540 249° West 470 541 38,000  Level FlightAware ADS-B
Wed 08:17:03 AM 2.3010 108.2070 249° West 471 542 38,000  Level FlightAware ADS-B
Wed 08:17:42 AM 2.2740 108.1400 248° West 471 542 38,000  Level FlightAware ADS-B
Wed 08:18:17 AM 2.2490 108.0800 247° West 471 542 38,000  Level FlightAware ADS-B
Wed 08:19:05 AM 2.2160 107.9980 248° West 471 542 38,000  Level FlightAware ADS-B
Wed 08:19:53 AM 2.1830 107.9150 248° West 471 542 38,000  Level FlightAware ADS-B
Wed 08:20:41 AM 2.1490 107.8330 247° West 471 542 38,000  Level FlightAware ADS-B
Wed 08:21:30 AM 2.1150 107.7480 248° West 471 542 38,000  Level FlightAware ADS-B
Wed 08:21:54 AM 2.0990 107.7070 249° West 471 542 38,000  Level FlightAware ADS-B
Wed 08:22:42 AM 2.0650 107.6250 247° West 471 542 38,000  Level FlightAware ADS-B
Wed 08:23:18 AM 2.0400 107.5630 248° West 471 542 38,000  Level FlightAware ADS-B
Wed 08:23:56 AM 2.0140 107.4980 248° West 471 542 38,000  Level FlightAware ADS-B
Wed 08:24:30 AM 1.9900 107.4390 248° West 471 542 38,000  Level FlightAware ADS-B
Wed 08:25:07 AM 1.9650 107.3760 248° West 471 542 38,000  Level FlightAware ADS-B
Wed 08:25:55 AM 1.9320 107.2930 248° West 471 542 38,000  Level FlightAware ADS-B
Wed 08:26:19 AM 1.9150 107.2520 247° West 471 542 38,000  Level FlightAware ADS-B
Wed 08:26:56 AM 1.8890 107.1880 248° West 471 542 38,000  Level FlightAware ADS-B
Wed 08:29:00 AM 1.9337 106.9051 279° West  Level Estimated
Wed 08:30:00 AM 1.9554 106.7683 279° West  Level Estimated
Wed 08:30:12 AM 2.5110 106.5790 279° West 463 533 38,000  Level FlightAware ADS-B
Wed 08:30:48 AM 2.5280 106.5160 285° West 463 533 38,000  Level FlightAware ADS-B
Wed 08:31:31 AM 2.5610 106.4040 286° West 465 535 38,000  Level FlightAware ADS-B
Wed 08:31:52 AM 2.5730 106.3600 285° West 466 536 38,000  Level FlightAware ADS-B
Wed 08:32:46 AM 2.6040 106.2480 285° West 467 537 38,000  Level FlightAware ADS-B
Wed 08:33:20 AM 2.6240 106.1760 286° West 467 537 38,000  Level FlightAware ADS-B
Wed 08:33:35 AM 2.6320 106.1450 284° West 466 536 38,000  Level FlightAware ADS-B
Wed 08:34:13 AM 2.6500 106.0780 285° West 466 536 38,000  Level FlightAware ADS-B
Wed 08:35:06 AM 2.6840 105.9590 286° West 464 534 38,000  Level FlightAware ADS-B
Wed 08:35:36 AM 2.7020 105.8940 285° West 462 532 38,000  Level FlightAware ADS-B
Wed 08:36:24 AM 2.7290 105.7950 285° West 460 529 38,000  Level FlightAware ADS-B
Wed 08:37:19 AM 2.7600 105.6820 285° West 461 531 38,000  Level FlightAware ADS-B
Wed 08:37:53 AM 2.7780 105.6150 285° West 463 533 38,000  Level FlightAware ADS-B
Wed 08:38:28 AM 2.7990 105.5400 286° West 464 534 38,000  Level FlightAware ADS-B
Wed 08:39:04 AM 2.8200 105.4640 285° West 463 533 38,000  Level FlightAware ADS-B
Wed 08:39:43 AM 2.8420 105.3840 285° West 464 534 38,000  Level FlightAware ADS-B
Wed 08:40:14 AM 2.8600 105.3200 286° West 466 536 38,000  Level FlightAware ADS-B
Wed 08:40:59 AM 2.8850 105.2270 285° West 468 539 38,000  Level FlightAware ADS-B
Wed 08:41:38 AM 2.9070 105.1470 285° West 470 541 38,000  Level FlightAware ADS-B
Wed 08:42:19 AM 2.9280 105.0700 285° West 470 541 38,000  Level FlightAware ADS-B
Wed 08:42:43 AM 2.9400 105.0270 286° West 470 541 38,000  Level FlightAware ADS-B
Wed 08:43:32 AM 2.9630 104.9400 285° West 470 541 38,000  Level FlightAware ADS-B
Wed 08:44:14 AM 2.9970 104.8240 286° West 463 533 38,000  Level FlightAware ADS-B
Wed 08:44:44 AM 3.0150 104.7570 285° West 462 532 38,000  Level FlightAware ADS-B
Wed 08:45:24 AM 3.0370 104.6770 285° West 461 531 38,000  Level FlightAware ADS-B
Wed 08:45:56 AM 3.0570 104.6060 286° West 463 533 38,000  Level FlightAware ADS-B
Wed 08:46:36 AM 3.0790 104.5250 285° West 464 534 38,000  Level FlightAware ADS-B
Wed 08:47:45 AM 3.1180 104.3820 285° West 467 537 38,000  Level FlightAware ADS-B
Wed 08:48:25 AM 3.1370 104.3110 285° West 467 537 38,000  Level FlightAware ADS-B
Wed 08:49:01 AM 3.1550 104.2470 286° West 467 537 38,000  Level FlightAware ADS-B
Wed 08:49:53 AM 3.1770 104.1240 280° West 472 543 38,000  Level FlightAware ADS-B
Wed 08:50:17 AM 3.1830 104.0800 278° West 472 543 38,000  Level FlightAware ADS-B
Wed 08:50:48 AM 3.1720 103.9900 263° West 470 541 38,000 -126 Level FlightAware ADS-B
Wed 08:51:52 AM 3.1670 103.8520 268° West 469 540 37,800 -283 Descending FlightAware ADS-B
Wed 08:52:34 AM 3.1630 103.7720 267° West 466 536 37,500 -228 Descending FlightAware ADS-B
Wed 08:53:11 AM 3.1600 103.7040 267° West 466 536 37,500  Level FlightAware ADS-B
Wed 08:53:49 AM 3.1560 103.6340 267° West 466 536 37,500  Level FlightAware ADS-B
Wed 08:54:14 AM 3.1540 103.5880 268° West 466 536 37,500  Level FlightAware ADS-B
Wed 08:55:03 AM 3.1490 103.4980 267° West 466 536 37,500  Level FlightAware ADS-B
Wed 08:56:03 AM 3.1430 103.3890 267° West 466 536 37,500 -3,523 Level FlightAware ADS-B
Wed 08:56:52 AM 3.2190 103.2200 294° West 623 717 31,100 -5,415 Descending FlightAware ADS-B
Wed 08:57:25 AM 3.2290 103.1600 279° West 420 483 30,100 -723 Descending FlightAware ADS-B
Wed 08:58:15 AM 3.2400 103.0780 278° West 420 483 30,100  Level FlightAware ADS-B
Wed 08:58:59 AM 3.2500 103.0060 278° West 420 483 30,100  Level FlightAware ADS-B
Wed 08:59:35 AM 3.2590 102.9470 279° West 420 483 30,100  Level FlightAware ADS-B
Wed 09:00:23 AM 3.2700 102.8690 278° West 420 483 30,100  Level FlightAware ADS-B
Wed 09:01:00 AM 3.2780 102.8080 277° West 420 483 30,100  Level FlightAware ADS-B
Wed 09:01:24 AM 3.2840 102.7690 279° West 420 483 30,100  Level FlightAware ADS-B
Wed 09:02:13 AM 3.2950 102.6890 278° West 420 483 30,100  Level FlightAware ADS-B
Wed 09:02:37 AM 3.3000 102.6490 277° West 420 483 30,100  Level FlightAware ADS-B
Wed 09:03:25 AM 3.3110 102.5710 278° West 420 483 30,100  Level FlightAware ADS-B
Wed 09:04:02 AM 3.3200 102.5100 278° West 420 483 30,100  Level FlightAware ADS-B
Wed 09:04:26 AM 3.3260 102.4710 279° West 420 483 30,100  Level FlightAware ADS-B
Wed 09:05:14 AM 3.3370 102.3920 278° West 420 483 30,100  Level FlightAware ADS-B
Wed 09:05:50 AM 3.3450 102.3330 278° West 420 483 30,100  Level FlightAware ADS-B
Wed 09:06:38 AM 3.3560 102.2540 278° West 420 483 30,100  Level FlightAware ADS-B
Wed 09:07:14 AM 3.3640 102.1960 278° West 420 483 30,100  Level FlightAware ADS-B
Wed 09:10:00 AM 3.0626 101.9590 218° Southwest  Level Estimated
Wed 09:11:00 AM 2.9537 101.8734 218° Southwest  Level Estimated
Wed 09:12:00 AM 2.8447 101.7878 218° Southwest  Level Estimated
Wed 09:13:00 AM 2.7456 101.7099 218° Southwest  Level Estimated
Wed 09:14:00 AM 2.7456 101.7099 236° Southwest  Level Estimated
Wed 09:15:00 AM 2.7456 101.7099 236° Southwest  Level Estimated
Wed 09:16:00 AM 2.7456 101.7099 236° Southwest  Level Estimated
Wed 09:17:00 AM 2.7456 101.7099 236° Southwest  Level Estimated
Wed 09:18:00 AM 2.7456 101.7099 236° Southwest  Level Estimated
Wed 09:19:00 AM 2.7456 101.7099 236° Southwest  Level Estimated
Wed 09:20:00 AM 2.7456 101.7099 236° Southwest  Level Estimated
Wed 09:21:00 AM 2.7456 101.7099 236° Southwest  Level Estimated
Wed 09:22:00 AM 2.7456 101.7099 236° Southwest  Level Estimated
Wed 09:23:00 AM 2.7456 101.7099 236° Southwest  Level Estimated
Wed 09:24:00 AM 2.7456 101.7099 236° Southwest  Level Estimated
Wed 09:25:00 AM 2.7456 101.7099 236° Southwest  Level Estimated
Wed 09:26:00 AM 2.7456 101.7099 236° Southwest  Level Estimated
Wed 09:27:00 AM 2.7456 101.7099 236° Southwest  Level Estimated
Wed 09:28:00 AM 2.7456 101.7099 236° Southwest  Level Estimated

Login

Don't have an account? Register now (free) for customized features, flight alerts, and more!